Time;durP1;ratioP1;P1;durP2;ratioP2;P2;SDS_P1;SDS_P2;PMS_P1;PMS_P2;Temp;Humidity;BMP_temperature;BMP_pressure;BME280_temperature;BME280_humidity;BME280_pressure;Samples;Min_cycle;Max_cycle;Signal;HPM_P1;HPM_P2
2021/04/11 00:02:20;;;;;;;32.60;29.07;;;10.00;99.90;;;;;;5074411;28;20449;-48
2021/04/11 00:04:48;;;;;;;33.30;27.43;;;9.90;99.90;;;;;;5074946;28;20455;-47
2021/04/11 00:07:14;;;;;;;33.17;29.67;;;10.10;99.90;;;;;;5074926;28;20445;-48
2021/04/11 00:09:41;;;;;;;33.70;26.60;;;10.20;99.90;;;;;;5075077;28;20433;-47
2021/04/11 00:12:08;;;;;;;34.27;29.50;;;10.10;99.90;;;;;;5074662;28;20483;-48
2021/04/11 00:14:34;;;;;;;35.70;28.40;;;9.90;99.90;;;;;;5074354;28;20469;-48
2021/04/11 00:17:01;;;;;;;31.97;27.63;;;9.80;99.90;;;;;;5074213;28;20490;-47
2021/04/11 00:19:27;;;;;;;33.37;28.40;;;10.10;99.90;;;;;;5074607;28;20512;-47
2021/04/11 00:21:54;;;;;;;34.20;30.50;;;10.00;99.90;;;;;;5073051;28;20489;-47
2021/04/11 00:24:20;;;;;;;36.20;30.50;;;9.80;99.90;;;;;;5074177;28;20529;-49
2021/04/11 00:26:46;;;;;;;36.93;30.30;;;9.90;99.90;;;;;;5074446;28;20461;-47
2021/04/11 00:29:13;;;;;;;35.00;29.33;;;10.10;99.90;;;;;;5074736;28;20518;-47
2021/04/11 00:31:39;;;;;;;37.37;31.70;;;10.10;99.90;;;;;;5074615;28;20426;-48
2021/04/11 00:34:05;;;;;;;32.90;29.33;;;9.80;99.90;;;;;;5074129;28;20430;-47
2021/04/11 00:36:32;;;;;;;34.80;29.97;;;9.80;99.90;;;;;;5073168;28;20508;-47
2021/04/11 00:38:59;;;;;;;34.30;29.67;;;10.10;99.90;;;;;;5074496;28;20476;-47
2021/04/11 00:41:28;;;;;;;40.53;32.97;;;10.10;99.90;;;;;;5074223;28;20426;-48
2021/04/11 00:43:55;;;;;;;36.13;29.73;;;9.90;99.90;;;;;;5073785;28;20470;-48
2021/04/11 00:46:35;;;;;;;39.10;31.00;;;9.80;99.90;;;;;;5074036;28;20534;-47
2021/04/11 00:49:02;;;;;;;33.77;30.07;;;9.80;99.90;;;;;;5074001;28;20813;-47
2021/04/11 00:51:32;;;;;;;39.23;30.50;;;10.00;99.90;;;;;;5074222;28;20495;-48
2021/04/11 00:54:01;;;;;;;35.10;30.00;;;9.80;99.90;;;;;;5073699;28;20445;-47
2021/04/11 00:56:29;;;;;;;36.50;31.03;;;10.20;99.90;;;;;;5073872;28;20532;-48
2021/04/11 00:58:56;;;;;;;36.50;31.47;;;9.90;99.90;;;;;;5074214;28;20893;-48
2021/04/11 01:01:22;;;;;;;35.37;31.67;;;9.80;99.90;;;;;;5072208;28;20468;-48
2021/04/11 01:03:52;;;;;;;41.97;29.63;;;10.00;99.90;;;;;;5072367;28;20969;-49
2021/04/11 01:06:22;;;;;;;36.97;32.33;;;10.00;99.90;;;;;;5072522;28;20801;-49
2021/04/11 01:08:50;;;;;;;35.70;31.87;;;9.80;99.90;;;;;;5073655;28;20583;-48
2021/04/11 01:11:19;;;;;;;36.97;32.97;;;9.90;99.90;;;;;;5072370;28;20499;-49
2021/04/11 01:13:50;;;;;;;38.17;33.40;;;9.80;99.90;;;;;;5071861;28;20446;-48
2021/04/11 01:16:17;;;;;;;35.00;31.37;;;9.80;99.90;;;;;;5071961;28;20564;-48
2021/04/11 01:18:45;;;;;;;41.40;34.70;;;9.70;99.90;;;;;;5071737;28;20474;-48
2021/04/11 01:21:21;;;;;;;38.43;32.93;;;9.50;99.90;;;;;;5071835;28;20495;-49
2021/04/11 01:23:55;;;;;;;40.57;35.63;;;9.90;99.90;;;;;;5071305;28;20458;-48
2021/04/11 01:26:23;;;;;;;44.63;35.30;;;9.80;99.90;;;;;;5071573;28;20557;-49
2021/04/11 01:28:50;;;;;;;40.20;34.87;;;9.70;99.90;;;;;;5072805;28;20542;-49
2021/04/11 01:31:16;;;;;;;36.93;33.07;;;10.00;99.90;;;;;;5071829;28;20610;-49
2021/04/11 01:33:49;;;;;;;39.97;34.20;;;9.40;99.90;;;;;;5072779;28;20512;-46
2021/04/11 01:36:20;;;;;;;42.80;36.60;;;9.60;99.90;;;;;;5071561;28;20558;-47
2021/04/11 01:38:48;;;;;;;39.93;34.80;;;9.90;99.90;;;;;;5071921;28;20485;-48
2021/04/11 01:41:21;;;;;;;41.83;37.20;;;9.80;99.90;;;;;;5071800;28;20453;-48
2021/04/11 01:43:50;;;;;;;40.60;36.07;;;9.80;99.90;;;;;;5071359;28;20848;-48
2021/04/11 01:46:17;;;;;;;39.83;35.40;;;9.70;99.90;;;;;;5072929;28;20584;-48
2021/04/11 01:48:46;;;;;;;40.63;36.40;;;10.00;99.90;;;;;;5071468;28;20989;-48
2021/04/11 01:51:15;;;;;;;39.50;35.20;;;9.80;99.90;;;;;;5071524;28;20442;-48
2021/04/11 01:53:44;;;;;;;47.77;39.03;;;9.90;99.90;;;;;;5071116;28;20449;-49
2021/04/11 01:56:12;;;;;;;42.57;38.07;;;9.60;99.90;;;;;;5071341;28;21005;-48
2021/04/11 01:58:39;;;;;;;41.80;36.03;;;10.00;99.90;;;;;;5071947;28;20482;-47
2021/04/11 02:01:23;;;;;;;40.70;35.77;;;9.40;99.90;;;;;;5073350;28;20443;-48
2021/04/11 02:03:53;;;;;;;44.40;39.03;;;9.80;99.90;;;;;;5071748;28;20454;-48
2021/04/11 02:06:21;;;;;;;42.73;37.37;;;9.90;99.90;;;;;;5071775;28;20474;-48
2021/04/11 02:08:54;;;;;;;42.87;38.40;;;9.70;99.90;;;;;;5072235;28;20438;-47
2021/04/11 02:11:21;;;;;;;45.20;39.93;;;10.00;99.90;;;;;;5070473;28;20445;-49
2021/04/11 02:13:49;;;;;;;51.73;40.10;;;9.70;99.90;;;;;;5070144;28;20968;-48
2021/04/11 02:16:26;;;;;;;47.40;40.10;;;9.70;99.90;;;;;;5073183;28;20530;-47
2021/04/11 02:18:58;;;;;;;48.70;39.27;;;10.00;99.90;;;;;;5071716;28;20563;-47
2021/04/11 02:21:26;;;;;;;45.57;39.40;;;9.90;99.90;;;;;;5072808;28;20433;-47
2021/04/11 02:23:54;;;;;;;50.40;40.17;;;9.70;99.90;;;;;;5071468;28;20533;-47
2021/04/11 02:26:25;;;;;;;47.23;40.90;;;9.90;99.90;;;;;;5071582;28;20485;-47
2021/04/11 02:29:04;;;;;;;44.60;39.27;;;9.70;99.90;;;;;;5070987;28;20555;-48
2021/04/11 02:31:32;;;;;;;51.00;41.50;;;9.70;99.90;;;;;;5070878;28;20485;-48
2021/04/11 02:34:06;;;;;;;48.07;40.73;;;9.80;99.90;;;;;;5070513;28;20503;-47
2021/04/11 02:36:37;;;;;;;43.93;39.00;;;9.70;99.90;;;;;;5070974;28;20484;-46
2021/04/11 02:39:11;;;;;;;51.03;41.70;;;9.70;99.90;;;;;;5072115;28;20477;-45
2021/04/11 02:41:39;;;;;;;48.03;42.73;;;10.00;99.90;;;;;;5072428;28;20430;-47
2021/04/11 02:44:06;;;;;;;46.87;41.90;;;9.60;99.90;;;;;;5070784;28;20449;-48
2021/04/11 02:46:34;;;;;;;45.70;40.00;;;10.00;99.90;;;;;;5071840;28;20457;-46
2021/04/11 02:49:01;;;;;;;46.37;41.10;;;10.10;99.90;;;;;;5070643;28;20529;-47
2021/04/11 02:51:30;;;;;;;51.43;42.17;;;9.70;99.90;;;;;;5071995;28;20433;-48
2021/04/11 02:54:04;;;;;;;47.03;41.27;;;9.20;99.90;;;;;;5070252;28;20487;-48
2021/04/11 02:56:39;;;;;;;53.13;43.20;;;9.80;99.90;;;;;;5070549;28;20475;-48
2021/04/11 02:59:10;;;;;;;54.50;42.77;;;10.00;99.90;;;;;;5070766;28;20531;-47
2021/04/11 03:01:41;;;;;;;49.77;42.43;;;9.70;99.90;;;;;;5070405;28;20458;-48
2021/04/11 03:04:12;;;;;;;52.77;43.13;;;9.70;99.90;;;;;;5071376;28;20442;-48
2021/04/11 03:06:41;;;;;;;52.40;41.60;;;9.50;99.90;;;;;;5070325;28;20465;-48
2021/04/11 03:09:12;;;;;;;48.23;41.37;;;9.80;99.90;;;;;;5071975;28;20455;-47
2021/04/11 03:11:48;;;;;;;50.37;43.20;;;9.80;99.90;;;;;;5070649;28;20442;-49
2021/04/11 03:14:22;;;;;;;51.07;42.67;;;9.90;99.90;;;;;;5070271;28;20446;-50
2021/04/11 03:16:53;;;;;;;47.33;41.03;;;10.00;99.90;;;;;;5070313;28;20557;-49
2021/04/11 03:19:31;;;;;;;48.83;41.47;;;9.70;99.90;;;;;;5070503;28;20858;-49
2021/04/11 03:21:57;;;;;;;52.60;44.17;;;9.80;99.90;;;;;;5070805;28;20457;-48
2021/04/11 03:24:24;;;;;;;49.90;43.67;;;9.80;99.90;;;;;;5073227;28;20893;-48
2021/04/11 03:26:59;;;;;;;48.50;43.23;;;9.50;99.90;;;;;;5074469;28;20469;-49
2021/04/11 03:29:32;;;;;;;49.67;42.67;;;9.70;99.90;;;;;;5074475;28;20834;-49
2021/04/11 03:32:06;;;;;;;52.50;44.17;;;9.90;99.90;;;;;;5075532;28;20448;-48
2021/04/11 03:34:36;;;;;;;51.20;43.60;;;9.70;99.90;;;;;;5073957;28;20481;-49
2021/04/11 03:37:05;;;;;;;54.13;45.07;;;9.30;99.90;;;;;;5075208;28;20961;-49
2021/04/11 03:39:34;;;;;;;52.23;44.87;;;9.80;99.90;;;;;;5073918;28;20505;-48
2021/04/11 03:42:05;;;;;;;49.97;44.50;;;9.80;99.90;;;;;;5074010;28;20962;-49
2021/04/11 03:44:32;;;;;;;52.23;45.23;;;9.90;99.90;;;;;;5073743;28;20465;-49
2021/04/11 03:47:05;;;;;;;64.43;46.17;;;9.50;99.90;;;;;;5073578;28;20473;-49
2021/04/11 03:49:48;;;;;;;52.03;44.30;;;9.80;99.90;;;;;;5073866;28;20468;-49
2021/04/11 03:52:22;;;;;;;54.77;44.70;;;9.70;99.90;;;;;;5075046;28;20989;-49
2021/04/11 03:54:50;;;;;;;55.97;45.13;;;9.20;99.90;;;;;;5073697;28;20540;-49
2021/04/11 03:57:21;;;;;;;51.93;45.17;;;9.80;99.90;;;;;;5073510;28;20465;-49
2021/04/11 03:59:56;;;;;;;56.80;46.10;;;9.70;99.90;;;;;;5073665;28;20441;-49
2021/04/11 04:02:25;;;;;;;54.77;44.30;;;9.60;99.90;;;;;;5073380;28;20865;-49
2021/04/11 04:04:54;;;;;;;54.97;46.37;;;9.90;99.90;;;;;;5073733;28;20790;-48
2021/04/11 04:07:23;;;;;;;55.23;45.17;;;9.70;99.90;;;;;;5073437;28;20477;-47
2021/04/11 04:09:57;;;;;;;52.80;46.07;;;9.60;99.90;;;;;;5073648;28;20491;-49
2021/04/11 04:12:52;;;;;;;55.33;45.20;;;9.70;99.90;;;;;;5073356;28;20460;-48
2021/04/11 04:15:33;;;;;;;58.23;46.20;;;9.50;99.90;;;;;;5073447;28;20457;-48
2021/04/11 04:18:16;;;;;;;52.30;44.63;;;9.70;99.90;;;;;;5073228;28;21012;-48
2021/04/11 04:20:48;;;;;;;54.13;44.93;;;9.80;99.90;;;;;;5073208;28;20456;-49
2021/04/11 04:23:34;;;;;;;58.17;48.80;;;9.40;99.90;;;;;;5072932;28;21038;-49
2021/04/11 04:26:24;;;;;;;50.50;43.87;;;9.70;99.90;;;;;;5073160;28;20492;-49
2021/04/11 04:28:55;;;;;;;57.03;45.87;;;9.70;99.90;;;;;;5073222;28;20476;-48
2021/04/11 04:31:35;;;;;;;59.50;45.70;;;9.60;99.90;;;;;;5073298;28;20846;-48
2021/04/11 04:34:15;;;;;;;53.57;46.27;;;9.60;99.90;;;;;;5072695;28;20445;-49
2021/04/11 04:36:51;;;;;;;57.13;47.57;;;9.90;99.90;;;;;;5073163;28;20869;-48
2021/04/11 04:39:32;;;;;;;58.93;48.50;;;9.70;99.90;;;;;;5072868;28;20984;-48
2021/04/11 04:42:14;;;;;;;51.60;44.33;;;9.60;99.90;;;;;;5072876;28;20519;-48
2021/04/11 04:45:07;;;;;;;61.73;46.47;;;10.00;99.90;;;;;;5072674;28;20449;-48
2021/04/11 04:47:50;;;;;;;57.93;47.50;;;9.60;99.90;;;;;;5074305;28;20572;-47
2021/04/11 04:50:22;;;;;;;55.13;48.37;;;9.60;99.90;;;;;;5072731;28;20479;-48
2021/04/11 04:53:07;;;;;;;56.77;47.10;;;9.90;99.90;;;;;;5072290;28;20473;-49
2021/04/11 04:55:35;;;;;;;54.40;47.90;;;9.70;99.90;;;;;;5072579;28;20483;-48
2021/04/11 04:58:06;;;;;;;52.40;46.70;;;9.10;99.90;;;;;;5072562;28;20556;-49
2021/04/11 05:00:36;;;;;;;54.17;45.87;;;9.70;99.90;;;;;;5072691;28;20456;-48
2021/04/11 05:03:13;;;;;;;54.70;47.37;;;9.70;99.90;;;;;;5073223;28;20442;-48
2021/04/11 05:05:45;;;;;;;54.80;44.77;;;9.90;99.90;;;;;;5072589;28;20596;-49
2021/04/11 05:08:17;;;;;;;54.80;46.70;;;9.90;99.90;;;;;;5072462;28;20456;-48
2021/04/11 05:10:48;;;;;;;57.07;47.10;;;10.00;99.90;;;;;;5073050;28;20445;-48
2021/04/11 05:13:33;;;;;;;52.33;46.13;;;10.10;99.90;;;;;;5073674;28;20805;-48
2021/04/11 05:16:08;;;;;;;55.30;45.63;;;9.90;99.90;;;;;;5074341;28;20478;-48
2021/04/11 05:18:39;;;;;;;52.63;45.90;;;9.90;99.90;;;;;;5073871;28;20505;-48
2021/04/11 05:21:35;;;;;;;55.37;46.40;;;10.20;99.90;;;;;;5073714;28;20495;-47
2021/04/11 05:24:08;;;;;;;54.03;46.87;;;9.90;99.90;;;;;;5072182;28;21003;-47
2021/04/11 05:26:46;;;;;;;56.50;46.90;;;10.10;99.90;;;;;;5072007;28;20473;-47
2021/04/11 05:29:22;;;;;;;60.63;48.93;;;10.00;99.90;;;;;;5073557;28;20430;-46
2021/04/11 05:31:51;;;;;;;57.53;47.10;;;10.20;99.90;;;;;;5073391;28;20457;-48
2021/04/11 05:34:20;;;;;;;56.57;47.10;;;10.30;99.90;;;;;;5073160;28;20803;-48
2021/04/11 05:37:02;;;;;;;58.10;46.97;;;10.20;99.90;;;;;;5071742;28;20474;-48
2021/04/11 05:39:39;;;;;;;60.00;49.57;;;10.30;99.90;;;;;;5073042;28;20512;-48
2021/04/11 05:42:16;;;;;;;57.50;46.53;;;10.40;99.90;;;;;;5072970;28;20440;-49
2021/04/11 05:44:49;;;;;;;59.87;46.83;;;10.50;99.90;;;;;;5054824;28;20489;-49
2021/04/11 05:47:24;;;;;;;53.90;44.83;;;10.10;99.90;;;;;;5072180;28;20606;-48
2021/04/11 05:49:56;;;;;;;55.17;46.67;;;10.40;99.90;;;;;;5073002;28;20900;-48
2021/04/11 05:52:30;;;;;;;55.10;45.27;;;10.60;99.90;;;;;;5072668;28;20950;-47
2021/04/11 05:54:58;;;;;;;54.23;46.40;;;10.70;99.90;;;;;;5072791;28;20524;-48
2021/04/11 05:57:32;;;;;;;53.23;46.87;;;10.40;99.90;;;;;;5072543;28;20984;-47
2021/04/11 06:00:04;;;;;;;54.70;43.30;;;10.60;99.90;;;;;;5072717;28;20442;-48
2021/04/11 06:02:42;;;;;;;55.97;45.70;;;10.10;99.90;;;;;;5074528;28;20475;-48
2021/04/11 06:05:11;;;;;;;55.33;44.73;;;10.50;99.90;;;;;;5074535;28;20434;-48
2021/04/11 06:07:48;;;;;;;55.57;46.07;;;10.50;99.90;;;;;;5072366;28;20498;-49
2021/04/11 06:10:18;;;;;;;54.00;46.70;;;10.70;99.90;;;;;;5072472;28;20575;-48
2021/04/11 06:12:53;;;;;;;55.70;46.80;;;10.80;99.90;;;;;;5072344;28;20448;-48
2021/04/11 06:15:25;;;;;;;57.03;47.87;;;9.90;99.90;;;;;;5072366;28;20434;-48
2021/04/11 06:17:54;;;;;;;58.40;48.10;;;10.40;99.90;;;;;;5072224;28;20562;-47
2021/04/11 06:20:22;;;;;;;53.97;45.53;;;10.40;99.90;;;;;;5072033;28;20434;-48
2021/04/11 06:22:57;;;;;;;60.07;47.20;;;10.40;99.90;;;;;;5071788;28;20441;-48
2021/04/11 06:25:32;;;;;;;56.87;48.43;;;10.60;99.90;;;;;;5071134;28;20441;-48
2021/04/11 06:28:07;;;;;;;51.40;45.07;;;10.30;99.90;;;;;;5072045;28;20452;-48
2021/04/11 06:30:37;;;;;;;49.33;44.03;;;10.40;99.90;;;;;;5072160;28;20930;-49
2021/04/11 06:33:10;;;;;;;53.87;45.77;;;10.50;99.90;;;;;;5071752;28;20805;-49
2021/04/11 06:35:41;;;;;;;57.07;45.70;;;10.60;99.90;;;;;;5072449;28;20934;-49
2021/04/11 06:38:12;;;;;;;50.77;45.20;;;10.90;99.90;;;;;;5071900;28;20473;-49
2021/04/11 06:41:04;;;;;;;55.10;45.20;;;10.90;99.90;;;;;;5071904;28;20799;-49
2021/04/11 06:44:19;;;;;;;52.80;44.77;;;10.90;99.90;;;;;;5071930;28;20437;-48
2021/04/11 06:46:59;;;;;;;50.70;43.43;;;10.80;99.90;;;;;;5035750;28;20467;-48
2021/04/11 06:49:58;;;;;;;53.20;44.83;;;11.20;99.90;;;;;;5071784;28;20441;-50
2021/04/11 06:52:39;;;;;;;50.63;44.40;;;10.90;99.90;;;;;;5071431;28;20429;-49
2021/04/11 06:55:14;;;;;;;55.63;47.37;;;10.80;99.90;;;;;;5071745;28;20430;-48
2021/04/11 06:57:50;;;;;;;51.00;44.60;;;11.00;99.90;;;;;;5071823;28;20452;-48
2021/04/11 07:00:37;;;;;;;51.63;45.40;;;11.30;99.90;;;;;;5071812;28;20462;-49
2021/04/11 07:03:40;;;;;;;61.40;44.00;;;11.50;99.90;;;;;;5071146;28;20422;-48
2021/04/11 07:06:58;;;;;;;51.20;43.20;;;11.50;99.90;;;;;;5070199;28;21033;-50
2021/04/11 07:09:48;;;;;;;54.73;44.93;;;11.30;99.90;;;;;;5014714;28;20441;-50
2021/04/11 07:13:08;;;;;;;52.03;46.23;;;11.30;99.90;;;;;;5071673;28;20444;-48
2021/04/11 07:16:27;;;;;;;52.23;43.53;;;11.40;99.90;;;;;;5071902;28;20434;-49
2021/04/11 07:19:17;;;;;;;49.50;42.47;;;11.50;99.90;;;;;;5068421;28;20486;-49
2021/04/11 07:22:16;;;;;;;48.60;42.63;;;11.50;99.90;;;;;;5071859;28;20440;-49
2021/04/11 07:25:21;;;;;;;50.10;42.70;;;11.70;99.90;;;;;;5071359;28;20938;-50
2021/04/11 07:28:02;;;;;;;44.67;39.60;;;11.60;99.90;;;;;;5071456;28;20453;-48
2021/04/11 07:30:37;;;;;;;51.60;41.63;;;11.60;99.90;;;;;;5071613;28;20805;-49
2021/04/11 07:33:38;;;;;;;53.83;42.13;;;11.40;99.90;;;;;;5070659;28;20488;-49
2021/04/11 07:36:21;;;;;;;49.90;43.00;;;11.80;99.90;;;;;;5071052;28;20799;-49
2021/04/11 07:39:09;;;;;;;46.70;40.80;;;11.80;99.90;;;;;;5070965;28;20540;-48
2021/04/11 07:41:53;;;;;;;44.77;37.60;;;11.80;99.90;;;;;;5071178;28;20426;-49
2021/04/11 07:44:51;;;;;;;49.07;42.57;;;11.80;99.90;;;;;;5071231;28;20488;-48
2021/04/11 07:47:35;;;;;;;48.00;39.30;;;12.20;99.90;;;;;;5071154;28;20982;-48
2021/04/11 07:50:23;;;;;;;46.53;40.63;;;12.30;99.90;;;;;;5071051;28;20483;-48
2021/04/11 07:53:07;;;;;;;48.03;40.53;;;12.30;99.90;;;;;;5070700;28;20923;-49
2021/04/11 07:55:44;;;;;;;44.60;39.17;;;12.30;99.90;;;;;;5069447;28;20454;-49
2021/04/11 07:58:34;;;;;;;44.80;39.97;;;12.60;99.90;;;;;;5070847;28;20473;-49
2021/04/11 08:01:24;;;;;;;42.63;37.73;;;12.70;99.90;;;;;;5071076;28;20443;-48
2021/04/11 08:04:13;;;;;;;43.50;38.90;;;13.20;99.90;;;;;;5070771;28;20916;-48
2021/04/11 08:07:02;;;;;;;47.83;38.40;;;12.90;99.90;;;;;;5071035;28;20472;-48
2021/04/11 08:09:38;;;;;;;42.50;35.70;;;13.20;99.90;;;;;;5062849;28;20448;-48
2021/04/11 08:12:24;;;;;;;40.70;36.27;;;13.40;99.90;;;;;;5074737;28;20932;-49
2021/04/11 08:14:59;;;;;;;38.13;34.10;;;13.40;99.90;;;;;;5074526;28;20473;-48
2021/04/11 08:17:47;;;;;;;39.70;35.43;;;13.90;99.90;;;;;;5074399;28;20482;-50
2021/04/11 08:20:40;;;;;;;39.77;33.23;;;13.60;99.90;;;;;;5074781;28;20446;-49
2021/04/11 08:23:29;;;;;;;35.47;31.80;;;13.80;99.90;;;;;;5073528;28;20460;-49
2021/04/11 08:26:06;;;;;;;36.67;32.57;;;13.70;99.90;;;;;;5074321;28;20451;-49
2021/04/11 08:29:02;;;;;;;36.20;31.10;;;13.90;99.90;;;;;;5074466;28;20773;-49
2021/04/11 08:32:15;;;;;;;37.27;29.83;;;13.80;99.90;;;;;;5073880;28;20528;-50
2021/04/11 08:35:02;;;;;;;33.27;29.77;;;13.90;99.90;;;;;;5073762;28;20526;-49
2021/04/11 08:37:46;;;;;;;37.97;30.63;;;13.90;99.90;;;;;;5073785;28;20535;-49
2021/04/11 08:40:22;;;;;;;30.63;26.80;;;14.10;99.90;;;;;;5074327;28;20443;-49
2021/04/11 08:43:04;;;;;;;33.57;28.93;;;14.10;99.90;;;;;;5073495;28;20430;-49
2021/04/11 08:45:43;;;;;;;31.07;27.67;;;14.30;99.90;;;;;;5073976;28;20456;-49
2021/04/11 08:48:41;;;;;;;32.00;27.77;;;14.40;99.90;;;;;;5073661;28;20516;-49
2021/04/11 08:51:18;;;;;;;29.90;26.53;;;14.60;99.90;;;;;;5073664;28;20541;-48
2021/04/11 08:53:55;;;;;;;29.43;25.10;;;14.30;99.90;;;;;;5073228;28;20520;-51
2021/04/11 08:56:28;;;;;;;28.83;25.80;;;14.80;99.90;;;;;;5073356;28;20952;-49
2021/04/11 08:59:01;;;;;;;29.17;25.90;;;14.60;99.90;;;;;;5073697;28;20477;-49
2021/04/11 09:01:46;;;;;;;29.00;25.90;;;14.70;99.90;;;;;;5073727;28;20912;-49
2021/04/11 09:04:18;;;;;;;25.87;23.00;;;14.80;99.90;;;;;;5073254;28;20425;-49
2021/04/11 09:07:03;;;;;;;28.10;25.10;;;15.00;99.90;;;;;;5073454;28;20538;-50
2021/04/11 09:09:45;;;;;;;25.80;23.03;;;15.00;99.90;;;;;;5073618;28;20972;-49
2021/04/11 09:12:20;;;;;;;29.90;26.80;;;15.10;99.90;;;;;;5073600;28;20491;-50
2021/04/11 09:15:01;;;;;;;28.87;25.80;;;15.40;99.90;;;;;;5073449;28;20429;-49
2021/04/11 09:17:44;;;;;;;27.93;23.80;;;15.30;99.90;;;;;;5073466;28;20464;-49
2021/04/11 09:20:17;;;;;;;29.57;24.80;;;15.30;99.90;;;;;;5073377;28;20842;-50
2021/04/11 09:23:14;;;;;;;26.03;23.33;;;15.50;99.90;;;;;;5072610;28;20906;-50
2021/04/11 09:25:53;;;;;;;29.93;23.60;;;15.10;99.30;;;;;;5073048;28;20508;-50
2021/04/11 09:28:37;;;;;;;25.33;22.70;;;15.90;99.90;;;;;;5073362;28;20422;-50
2021/04/11 09:31:29;;;;;;;24.27;21.67;;;15.70;99.60;;;;;;5073370;28;20520;-50
2021/04/11 09:34:15;;;;;;;25.10;21.70;;;16.00;99.50;;;;;;5072633;28;20440;-50
2021/04/11 09:36:50;;;;;;;22.10;19.30;;;15.80;99.30;;;;;;5073422;28;20450;-49
2021/04/11 09:39:54;;;;;;;23.73;21.33;;;15.90;99.20;;;;;;5072663;28;20481;-49
2021/04/11 09:42:50;;;;;;;22.30;20.00;;;15.90;99.10;;;;;;5070885;28;20443;-50
2021/04/11 09:45:35;;;;;;;21.00;18.87;;;15.90;98.80;;;;;;5067548;28;20452;-49
2021/04/11 09:48:15;;;;;;;20.20;18.20;;;16.00;98.40;;;;;;5072180;28;20505;-49
2021/04/11 09:50:49;;;;;;;21.93;17.93;;;16.00;98.30;;;;;;5072670;28;20432;-49
2021/04/11 09:53:44;;;;;;;23.87;18.13;;;16.00;97.90;;;;;;5072563;28;20520;-52
2021/04/11 09:56:26;;;;;;;20.60;18.43;;;15.90;97.90;;;;;;5072938;28;20981;-49
2021/04/11 09:59:13;;;;;;;19.47;17.37;;;15.70;98.00;;;;;;5072093;28;20488;-48
2021/04/11 10:01:47;;;;;;;19.43;17.13;;;15.60;97.50;;;;;;5072458;28;20432;-49
2021/04/11 10:04:47;;;;;;;19.63;17.53;;;15.60;97.50;;;;;;5070637;28;20451;-50
2021/04/11 10:07:42;;;;;;;20.03;17.00;;;15.70;97.20;;;;;;5060982;28;20478;-51
2021/04/11 10:10:18;;;;;;;18.77;16.87;;;15.70;97.10;;;;;;5071411;28;20953;-49
2021/04/11 10:13:05;;;;;;;22.27;17.40;;;15.70;97.50;;;;;;5072120;28;20922;-50
2021/04/11 10:15:37;;;;;;;20.63;17.80;;;15.80;97.50;;;;;;5071712;28;20432;-49
2021/04/11 10:18:43;;;;;;;19.77;17.27;;;15.60;97.30;;;;;;5072219;28;20511;-49
2021/04/11 10:21:20;;;;;;;23.17;18.40;;;15.70;97.40;;;;;;5036009;28;20442;-48
2021/04/11 10:24:02;;;;;;;20.50;18.30;;;15.80;97.50;;;;;;5071504;28;20430;-49
2021/04/11 10:26:33;;;;;;;19.90;17.77;;;15.80;97.50;;;;;;5072274;28;20454;-49
2021/04/11 10:29:05;;;;;;;20.60;17.67;;;15.40;97.20;;;;;;5072254;28;20436;-49
2021/04/11 10:31:37;;;;;;;22.97;18.13;;;15.60;97.20;;;;;;5071487;28;20430;-49
2021/04/11 10:34:12;;;;;;;21.10;17.37;;;15.90;97.10;;;;;;5070944;28;20442;-49
2021/04/11 10:36:44;;;;;;;19.90;16.80;;;16.30;97.10;;;;;;5071924;28;20454;-49
2021/04/11 10:39:21;;;;;;;20.93;17.30;;;16.20;96.70;;;;;;5071911;28;20567;-50
2021/04/11 10:42:08;;;;;;;19.53;16.30;;;16.60;96.50;;;;;;5072045;28;20431;-50
2021/04/11 10:44:52;;;;;;;20.23;18.03;;;16.90;96.50;;;;;;5071244;28;20445;-50
2021/04/11 10:47:41;;;;;;;17.57;15.40;;;17.00;96.30;;;;;;5086631;22;21002;-50
2021/04/11 10:50:14;;;;;;;18.20;15.90;;;17.00;95.90;;;;;;5070624;28;20446;-50
2021/04/11 10:53:13;;;;;;;19.90;15.03;;;16.80;95.70;;;;;;5069991;28;20456;-49
2021/04/11 10:56:12;;;;;;;19.07;17.27;;;17.10;95.70;;;;;;5062868;28;20564;-50
2021/04/11 10:59:14;;;;;;;19.80;15.77;;;16.90;95.40;;;;;;4968578;28;20602;-48
2021/04/11 11:02:03;;;;;;;19.87;16.53;;;17.20;95.50;;;;;;5049982;28;20428;-51
2021/04/11 11:04:58;;;;;;;19.50;17.50;;;17.00;95.10;;;;;;5049616;28;20461;-49
2021/04/11 11:07:49;;;;;;;19.90;15.13;;;17.40;95.30;;;;;;5049774;28;20456;-50
2021/04/11 11:10:26;;;;;;;15.83;14.23;;;17.00;95.00;;;;;;5013955;28;20525;-49
2021/04/11 11:13:14;;;;;;;20.13;16.30;;;17.20;95.30;;;;;;5049311;28;20721;-50
2021/04/11 11:16:05;;;;;;;15.57;14.00;;;17.00;95.40;;;;;;5049476;28;20498;-49
2021/04/11 11:19:04;;;;;;;19.13;15.07;;;16.90;95.20;;;;;;5049690;28;20477;-50
2021/04/11 11:21:43;;;;;;;15.37;13.77;;;16.80;95.00;;;;;;5049696;28;20518;-50
2021/04/11 11:24:48;;;;;;;16.13;13.63;;;16.80;95.00;;;;;;5049320;28;20450;-49
2021/04/11 11:27:51;;;;;;;16.30;14.60;;;17.00;94.90;;;;;;5013044;28;20481;-50
2021/04/11 11:30:33;;;;;;;18.90;14.40;;;16.70;94.70;;;;;;5049742;28;20749;-50
2021/04/11 11:33:14;;;;;;;16.93;14.97;;;17.10;94.80;;;;;;5049461;28;20888;-50
2021/04/11 11:36:03;;;;;;;17.93;13.93;;;17.20;94.40;;;;;;5049703;28;20431;-49
2021/04/11 11:38:34;;;;;;;15.30;13.70;;;17.40;94.40;;;;;;5049834;28;20475;-50
2021/04/11 11:41:11;;;;;;;15.50;11.80;;;17.20;94.30;;;;;;5049356;28;20431;-50
2021/04/11 11:43:44;;;;;;;14.30;12.87;;;17.30;94.00;;;;;;5047956;28;20511;-50
2021/04/11 11:46:23;;;;;;;19.47;14.03;;;17.50;94.20;;;;;;5053113;28;20447;-50
2021/04/11 11:49:06;;;;;;;13.17;11.73;;;17.20;93.90;;;;;;5053515;28;20523;-50
2021/04/11 11:51:41;;;;;;;13.60;11.23;;;17.30;93.50;;;;;;5053224;28;20832;-50
2021/04/11 11:54:16;;;;;;;12.93;11.33;;;17.50;93.80;;;;;;5051320;28;20457;-49
2021/04/11 11:56:48;;;;;;;17.90;11.70;;;17.20;93.70;;;;;;5053118;28;20560;-50
2021/04/11 11:59:24;;;;;;;13.87;12.47;;;17.10;93.70;;;;;;5052481;28;20495;-50
2021/04/11 12:01:53;;;;;;;13.30;11.00;;;17.40;93.80;;;;;;5052914;28;21029;-50
2021/04/11 12:04:35;;;;;;;12.30;11.07;;;17.40;93.70;;;;;;5052124;28;20826;-50
2021/04/11 12:07:09;;;;;;;13.73;10.70;;;17.50;93.50;;;;;;5052030;28;20442;-50
2021/04/11 12:09:41;;;;;;;10.20;9.20;;;17.40;93.20;;;;;;5052599;28;20947;-49
2021/04/11 12:12:12;;;;;;;12.67;10.50;;;17.40;93.20;;;;;;5052424;28;20440;-49
2021/04/11 12:14:45;;;;;;;13.00;11.13;;;17.40;93.20;;;;;;5052287;28;20797;-50
2021/04/11 12:17:18;;;;;;;10.43;9.30;;;17.40;93.40;;;;;;5052725;28;20551;-50
2021/04/11 12:19:52;;;;;;;11.23;8.93;;;17.40;93.30;;;;;;5051931;28;20516;-49
2021/04/11 12:22:24;;;;;;;10.20;8.77;;;17.60;92.80;;;;;;5052156;28;20931;-50
2021/04/11 12:24:58;;;;;;;10.33;9.00;;;17.40;92.50;;;;;;5052447;28;20427;-49
2021/04/11 12:27:34;;;;;;;11.77;10.57;;;17.50;92.30;;;;;;5052578;28;20528;-49
2021/04/11 12:30:01;;;;;;;9.50;7.80;;;17.60;92.40;;;;;;5052682;28;20444;-49
2021/04/11 12:32:39;;;;;;;10.17;7.50;;;17.20;91.90;;;;;;5051554;28;20531;-49
2021/04/11 12:35:18;;;;;;;12.60;8.00;;;17.40;91.50;;;;;;5052118;28;20526;-49
2021/04/11 12:38:00;;;;;;;8.20;6.50;;;17.40;91.20;;;;;;5051948;28;20575;-50
2021/04/11 12:40:32;;;;;;;9.03;6.57;;;17.70;90.40;;;;;;5052483;28;20480;-49
2021/04/11 12:43:08;;;;;;;9.53;7.40;;;17.50;90.10;;;;;;5051599;28;20433;-49
2021/04/11 12:45:43;;;;;;;13.30;7.53;;;17.50;89.80;;;;;;5050213;28;20449;-51
2021/04/11 12:48:20;;;;;;;9.97;7.30;;;17.80;89.90;;;;;;5051945;28;20475;-49
2021/04/11 12:50:59;;;;;;;8.33;6.17;;;17.40;88.80;;;;;;5051790;28;20810;-48
2021/04/11 12:53:35;;;;;;;11.77;7.30;;;17.80;88.10;;;;;;5051784;28;20437;-50
2021/04/11 12:56:05;;;;;;;8.70;6.70;;;17.50;85.90;;;;;;5051627;28;20435;-49
2021/04/11 12:58:34;;;;;;;11.50;7.70;;;18.00;85.00;;;;;;5051306;28;20558;-49
2021/04/11 13:01:09;;;;;;;7.93;7.07;;;18.30;84.50;;;;;;5051898;28;20442;-49
2021/04/11 13:03:41;;;;;;;9.50;6.67;;;18.50;84.50;;;;;;5051448;28;20500;-49
2021/04/11 13:06:37;;;;;;;7.70;5.90;;;18.60;84.20;;;;;;5051283;28;20604;-48
2021/04/11 13:09:13;;;;;;;8.33;6.17;;;18.50;82.90;;;;;;5051431;28;20453;-50
2021/04/11 13:11:46;;;;;;;7.20;5.70;;;18.30;80.90;;;;;;5051619;28;20436;-50
2021/04/11 13:14:23;;;;;;;9.87;6.10;;;18.60;81.40;;;;;;5051316;28;20532;-50
2021/04/11 13:16:55;;;;;;;9.33;6.60;;;18.40;81.40;;;;;;5051485;28;20451;-50
2021/04/11 13:19:24;;;;;;;8.80;5.60;;;18.70;81.20;;;;;;5051287;28;20481;-50
2021/04/11 13:21:56;;;;;;;11.27;5.70;;;18.80;80.90;;;;;;5050991;28;20444;-50
2021/04/11 13:24:30;;;;;;;9.23;5.27;;;19.20;80.40;;;;;;5051168;28;20948;-50